Wetterdaten: Woche 31.05.10 - 06.06.10 (KW22)
Datum Zeit Temp. A. Feuchte A. Luftdruck Regen Wind Richtung Taupunkt Windchill Windben
31.05.2010 07:00 11,5 C 88 % 1013,1 hPa 19,6 l/m 0,0 km/h S-SO 9,6 C 11,5 C 0,0 km/h
31.05.2010 08:00 18,1 C 65 % 1013,4 hPa 0,0 l/m 0,0 km/h N-NW 11,4 C 18,1 C 0,0 km/h
31.05.2010 09:00 15,4 C 59 % 1013,5 hPa 0,0 l/m 0,0 km/h W 7,4 C 15,4 C 0,0 km/h
31.05.2010 10:00 13,2 C 71 % 1013,5 hPa 0,0 l/m 0,0 km/h W 8,1 C 13,2 C 0,0 km/h
31.05.2010 11:00 15,8 C 62 % 1013,9 hPa 0,0 l/m 1,9 km/h W 8,5 C 15,8 C 1,1 km/h
31.05.2010 12:00 18,8 C 52 % 1013,9 hPa 0,0 l/m 0,0 km/h NW 8,7 C 18,8 C 0,0 km/h
31.05.2010 13:00 17,1 C 51 % 1014,4 hPa 0,0 l/m 1,9 km/h NW 6,9 C 17,1 C 1,1 km/h
31.05.2010 14:00 16,3 C 54 % 1014,3 hPa 0,0 l/m 0,6 km/h NW 7,0 C 16,3 C 0,4 km/h
31.05.2010 15:00 16,6 C 54 % 1014,6 hPa 0,0 l/m 1,3 km/h NW 7,3 C 16,6 C 0,7 km/h
31.05.2010 16:00 14,5 C 61 % 1015,1 hPa 0,0 l/m 0,0 km/h W-NW 7,1 C 14,5 C 0,0 km/h
31.05.2010 17:00 14,9 C 62 % 1015,0 hPa 0,0 l/m 0,0 km/h W-NW 7,7 C 14,9 C 0,0 km/h
31.05.2010 18:00 14,6 C 63 % 1015,2 hPa 19,6 l/m 0,0 km/h N-NW 7,6 C 14,6 C 0,0 km/h
31.05.2010 19:00 13,6 C 66 % 1015,5 hPa 0,0 l/m 0,0 km/h N-NW 7,4 C 13,6 C 0,0 km/h
31.05.2010 20:00 12,8 C 70 % 1015,9 hPa 0,0 l/m 0,0 km/h N-NW 7,5 C 12,8 C 0,0 km/h
31.05.2010 21:00 11,9 C 74 % 1016,8 hPa 0,0 l/m 0,0 km/h SO 7,4 C 11,9 C 0,0 km/h
31.05.2010 22:00 11,1 C 82 % 1016,7 hPa 0,0 l/m 0,0 km/h SO 8,1 C 11,1 C 0,0 km/h
31.05.2010 23:00 11,3 C 81 % 1016,8 hPa 0,0 l/m 0,0 km/h SO 8,2 C 11,3 C 0,0 km/h
01.06.2010 00:00 10,8 C 84 % 1016,8 hPa 0,4 l/m 0,0 km/h SO 8,2 C 10,8 C 0,0 km/h
01.06.2010 01:00 10,5 C 87 % 1016,6 hPa 0,0 l/m 0,0 km/h S-SO 8,4 C 10,5 C 0,0 km/h
01.06.2010 02:00 10,4 C 88 % 1015,9 hPa 0,0 l/m 0,0 km/h N-NO 8,5 C 10,4 C 0,0 km/h
01.06.2010 03:00 10,2 C 89 % 1015,4 hPa 0,0 l/m 0,0 km/h N-NO 8,5 C 10,2 C 0,0 km/h
01.06.2010 04:00 10,3 C 90 % 1015,0 hPa 0,0 l/m 0,0 km/h N-NO 8,7 C 10,3 C 0,0 km/h
01.06.2010 05:00 10,4 C 91 % 1015,5 hPa 0,0 l/m 0,0 km/h NO 9,0 C 10,4 C 0,0 km/h
01.06.2010 06:00 10,8 C 91 % 1015,8 hPa 0,0 l/m 0,0 km/h SO 9,4 C 10,8 C 0,0 km/h
01.06.2010 07:00 12,1 C 89 % 1016,3 hPa 0,0 l/m 0,0 km/h S-SO 10,3 C 12,1 C 0,0 km/h
01.06.2010 08:00 16,1 C 83 % 1016,4 hPa 0,0 l/m 0,0 km/h SO 13,2 C 16,1 C 0,0 km/h
01.06.2010 09:00 19,3 C 62 % 1015,8 hPa 0,0 l/m 0,0 km/h W-SW 11,8 C 19,3 C 0,0 km/h
01.06.2010 10:00 18,9 C 62 % 1015,3 hPa 0,0 l/m 0,0 km/h W-SW 11,5 C 18,9 C 0,0 km/h
01.06.2010 11:00 19,3 C 60 % 1014,8 hPa 0,0 l/m 0,0 km/h SW 11,3 C 19,3 C 0,0 km/h
01.06.2010 12:00 17,1 C 68 % 1014,4 hPa 0,0 l/m 0,0 km/h W-SW 11,1 C 17,1 C 0,0 km/h
01.06.2010 13:00 20,8 C 57 % 1013,9 hPa 0,0 l/m 0,0 km/h SW 12,0 C 20,8 C 0,0 km/h
01.06.2010 14:00 23,4 C 53 % 1013,5 hPa 0,0 l/m 6,5 km/h W 13,3 C 23,4 C 3,6 km/h
01.06.2010 15:00 20,9 C 56 % 1013,2 hPa 0,0 l/m 0,0 km/h W 11,8 C 20,9 C 0,0 km/h
01.06.2010 16:00 20,6 C 57 % 1013,2 hPa 0,0 l/m 0,0 km/h W 11,8 C 20,6 C 0,0 km/h
01.06.2010 17:00 19,9 C 57 % 1012,9 hPa 0,0 l/m 0,0 km/h N-NO 11,1 C 19,9 C 0,0 km/h
01.06.2010 18:00 17,9 C 60 % 1012,8 hPa 0,0 l/m 0,0 km/h NO 10,0 C 17,9 C 0,0 km/h
01.06.2010 19:00 16,2 C 68 % 1012,5 hPa 0,0 l/m 0,0 km/h O-NO 10,3 C 16,2 C 0,0 km/h
01.06.2010 20:00 14,9 C 75 % 1012,6 hPa 0,0 l/m 0,0 km/h O 10,5 C 14,9 C 0,0 km/h
01.06.2010 21:00 13,9 C 80 % 1012,8 hPa 0,0 l/m 0,0 km/h O 10,5 C 13,9 C 0,0 km/h
01.06.2010 22:00 13,3 C 83 % 1013,2 hPa 0,0 l/m 0,0 km/h O-SO 10,5 C 13,3 C 0,0 km/h
01.06.2010 23:00 12,6 C 84 % 1013,2 hPa 0,0 l/m 0,0 km/h O-SO 10,0 C 12,6 C 0,0 km/h
02.06.2010 00:00 12,7 C 85 % 1012,9 hPa 0,0 l/m 0,0 km/h O-SO 10,2 C 12,7 C 0,0 km/h
02.06.2010 01:00 11,9 C 87 % 1012,9 hPa 0,0 l/m 0,0 km/h O-SO 9,8 C 11,9 C 0,0 km/h
02.06.2010 02:00 11,4 C 88 % 1012,9 hPa 0,0 l/m 0,0 km/h O 9,5 C 11,4 C 0,0 km/h
02.06.2010 03:00 11,0 C 89 % 1012,7 hPa 0,0 l/m 0,0 km/h O 9,3 C 11,0 C 0,0 km/h
02.06.2010 04:00 10,8 C 90 % 1012,7 hPa 0,0 l/m 0,0 km/h O 9,2 C 10,8 C 0,0 km/h
02.06.2010 05:00 11,4 C 90 % 1013,1 hPa 0,0 l/m 0,0 km/h O 9,8 C 11,4 C 0,0 km/h
02.06.2010 06:00 12,1 C 89 % 1013,3 hPa 0,0 l/m 0,0 km/h W-SW 10,3 C 12,1 C 0,0 km/h
02.06.2010 07:00 13,5 C 88 % 1013,6 hPa 0,0 l/m 0,0 km/h W 11,6 C 13,5 C 0,0 km/h
02.06.2010 08:00 16,5 C 78 % 1013,9 hPa 0,0 l/m 0,0 km/h W 12,6 C 16,5 C 0,0 km/h
02.06.2010 09:00 15,9 C 77 % 1014,1 hPa 0,0 l/m 0,0 km/h N-NW 11,9 C 15,9 C 0,0 km/h
02.06.2010 10:00 18,1 C 66 % 1014,3 hPa 0,0 l/m 0,0 km/h N-NO 11,6 C 18,1 C 0,0 km/h
02.06.2010 11:00 18,9 C 63 % 1014,5 hPa 0,0 l/m 0,0 km/h N-NO 11,7 C 18,9 C 0,0 km/h
02.06.2010 12:00 18,8 C 62 % 1014,3 hPa 0,0 l/m 0,0 km/h N 11,4 C 18,8 C 0,0 km/h
02.06.2010 13:00 18,9 C 61 % 1014,5 hPa 0,0 l/m 0,0 km/h NO 11,2 C 18,9 C 0,0 km/h
02.06.2010 14:00 18,7 C 58 % 1014,6 hPa 0,0 l/m 0,0 km/h SO 10,3 C 18,7 C 0,0 km/h
02.06.2010 15:00 17,3 C 67 % 1014,8 hPa 0,0 l/m 0,0 km/h S-SO 11,1 C 17,3 C 0,0 km/h
02.06.2010 16:00 17,5 C 71 % 1014,9 hPa 0,0 l/m 0,0 km/h S 12,2 C 17,5 C 0,0 km/h
02.06.2010 17:00 18,2 C 67 % 1014,7 hPa 0,0 l/m 0,0 km/h S-SW 12,0 C 18,2 C 0,0 km/h
02.06.2010 18:00 20,3 C 61 % 1014,8 hPa 0,0 l/m 0,0 km/h S 12,5 C 20,3 C 0,0 km/h
02.06.2010 19:00 20,1 C 61 % 1015,1 hPa 0,0 l/m 0,0 km/h S 12,3 C 20,1 C 0,0 km/h
02.06.2010 20:00 16,1 C 74 % 1014,9 hPa 0,0 l/m 0,0 km/h O-NO 11,5 C 16,1 C 0,0 km/h
02.06.2010 21:00 14,4 C 79 % 1015,2 hPa 0,0 l/m 0,0 km/h O 10,8 C 14,4 C 0,0 km/h
02.06.2010 22:00 14,1 C 81 % 1015,4 hPa 0,0 l/m 0,0 km/h SO 10,9 C 14,1 C 0,0 km/h
02.06.2010 23:00 13,8 C 83 % 1015,4 hPa 0,0 l/m 0,0 km/h O-NO 11,0 C 13,8 C 0,0 km/h
03.06.2010 00:00 12,9 C 86 % 1015,4 hPa 0,0 l/m 0,0 km/h O-NO 10,6 C 12,9 C 0,0 km/h
03.06.2010 01:00 13,2 C 86 % 1015,4 hPa 0,0 l/m 0,0 km/h S-SO 10,9 C 13,2 C 0,0 km/h
03.06.2010 02:00 12,8 C 88 % 1015,1 hPa 0,0 l/m 0,0 km/h S-SO 10,9 C 12,8 C 0,0 km/h
03.06.2010 03:00 12,5 C 89 % 1015,0 hPa 0,0 l/m 0,0 km/h SO 10,7 C 12,5 C 0,0 km/h
03.06.2010 04:00 12,4 C 89 % 1015,2 hPa 0,0 l/m 0,0 km/h SO 10,6 C 12,4 C 0,0 km/h
03.06.2010 05:00 12,2 C 90 % 1015,1 hPa 0,0 l/m 0,0 km/h S-SO 10,6 C 12,2 C 0,0 km/h
03.06.2010 06:00 12,9 C 90 % 1015,4 hPa 0,0 l/m 0,0 km/h S-SO 11,3 C 12,9 C 0,0 km/h
03.06.2010 07:00 13,6 C 90 % 1015,4 hPa 0,0 l/m 0,0 km/h S-SO 12,0 C 13,6 C 0,0 km/h
03.06.2010 08:00 14,8 C 88 % 1015,6 hPa 0,0 l/m 0,0 km/h N-NO 12,8 C 14,8 C 0,0 km/h
03.06.2010 09:00 15,2 C 76 % 1015,9 hPa 0,0 l/m 0,0 km/h N 11,0 C 15,2 C 0,0 km/h
03.06.2010 10:00 14,9 C 75 % 1016,5 hPa 0,0 l/m 0,0 km/h N-NO 10,5 C 14,9 C 0,0 km/h
03.06.2010 11:00 14,4 C 77 % 1016,9 hPa 0,0 l/m 0,0 km/h N-NW 10,4 C 14,4 C 0,0 km/h
03.06.2010 12:00 15,6 C 74 % 1016,9 hPa 0,0 l/m 0,0 km/h N-NW 11,0 C 15,6 C 0,0 km/h
03.06.2010 13:00 17,1 C 67 % 1016,6 hPa 0,0 l/m 2,6 km/h NO 10,9 C 17,1 C 1,4 km/h
03.06.2010 14:00 16,1 C 68 % 1016,8 hPa 0,0 l/m 0,0 km/h NO 10,2 C 16,1 C 0,0 km/h
03.06.2010 15:00 18,3 C 62 % 1016,8 hPa 0,0 l/m 0,0 km/h N 10,9 C 18,3 C 0,0 km/h
03.06.2010 16:00 18,8 C 62 % 1016,6 hPa 0,0 l/m 0,0 km/h NO 11,4 C 18,8 C 0,0 km/h
03.06.2010 17:00 21,9 C 53 % 1016,3 hPa 0,0 l/m 1,9 km/h NO 11,9 C 21,9 C 1,1 km/h
03.06.2010 18:00 19,4 C 61 % 1016,0 hPa 0,0 l/m 0,0 km/h O-NO 11,7 C 19,4 C 0,0 km/h
03.06.2010 19:00 19,1 C 64 % 1015,6 hPa 0,0 l/m 0,0 km/h N 12,1 C 19,1 C 0,0 km/h
03.06.2010 20:00 17,0 C 69 % 1015,9 hPa 0,0 l/m 0,0 km/h W-NW 11,3 C 17,0 C 0,0 km/h
03.06.2010 21:00 15,6 C 76 % 1016,2 hPa 0,0 l/m 0,0 km/h O-NO 11,4 C 15,6 C 0,0 km/h
03.06.2010 22:00 14,8 C 82 % 1016,6 hPa 0,0 l/m 0,0 km/h N-NO 11,8 C 14,8 C 0,0 km/h
03.06.2010 23:00 15,5 C 78 % 1016,7 hPa 0,0 l/m 0,0 km/h O 11,7 C 15,5 C 0,0 km/h
04.06.2010 00:00 13,8 C 82 % 1016,4 hPa 0,0 l/m 0,0 km/h O-NO 10,8 C 13,8 C 0,0 km/h
04.06.2010 01:00 11,9 C 87 % 1016,2 hPa 0,0 l/m 0,0 km/h NO 9,8 C 11,9 C 0,0 km/h
04.06.2010 02:00 11,1 C 89 % 1016,2 hPa 0,0 l/m 0,0 km/h O-NO 9,4 C 11,1 C 0,0 km/h
04.06.2010 03:00 10,9 C 89 % 1015,9 hPa 0,0 l/m 0,0 km/h O-NO 9,2 C 10,9 C 0,0 km/h
04.06.2010 04:00 9,3 C 90 % 1015,8 hPa 0,0 l/m 0,0 km/h O-SO 7,7 C 9,3 C 0,0 km/h
04.06.2010 05:00 9,3 C 92 % 1016,3 hPa 0,0 l/m 0,0 km/h NO 8,1 C 9,3 C 0,0 km/h
04.06.2010 06:00 10,8 C 92 % 1016,6 hPa 0,0 l/m 0,0 km/h N-NO 9,6 C 10,8 C 0,0 km/h
04.06.2010 07:00 15,4 C 90 % 1017,1 hPa 0,0 l/m 0,0 km/h N-NW 13,8 C 15,4 C 0,0 km/h
04.06.2010 08:00 25,4 C 54 % 1017,0 hPa 0,0 l/m 0,0 km/h NW 15,4 C 25,4 C 0,0 km/h
04.06.2010 09:00 26,9 C 52 % 1017,1 hPa 0,0 l/m 0,0 km/h W-NW 16,2 C 26,9 C 0,0 km/h
04.06.2010 10:00 28,4 C 46 % 1016,9 hPa 0,0 l/m 0,0 km/h NW 15,6 C 28,4 C 0,0 km/h
04.06.2010 11:00 28,1 C 47 % 1016,6 hPa 0,0 l/m 0,0 km/h O-SO 15,7 C 28,1 C 0,0 km/h
04.06.2010 12:00 28,4 C 44 % 1016,5 hPa 0,0 l/m 1,3 km/h O-SO 14,9 C 28,4 C 0,7 km/h
04.06.2010 13:00 28,1 C 42 % 1016,4 hPa 0,0 l/m 7,1 km/h N-NO 14,0 C 28,0 C 4,0 km/h
04.06.2010 14:00 29,4 C 37 % 1016,0 hPa 0,0 l/m 0,0 km/h N-NO 13,2 C 29,4 C 0,0 km/h
04.06.2010 15:00 31,8 C 31 % 1016,0 hPa 0,0 l/m 0,0 km/h N-NO 12,6 C 31,8 C 0,0 km/h
04.06.2010 16:00 32,4 C 34 % 1016,0 hPa 0,0 l/m 0,6 km/h N 14,5 C 32,4 C 0,4 km/h
04.06.2010 17:00 31,7 C 35 % 1015,9 hPa 0,0 l/m 0,0 km/h N-NO 14,3 C 31,7 C 0,0 km/h
04.06.2010 18:00 30,1 C 36 % 1016,2 hPa 0,0 l/m 0,0 km/h O-NO 13,4 C 30,1 C 0,0 km/h
04.06.2010 19:00 24,4 C 45 % 1016,3 hPa 0,0 l/m 0,0 km/h N 11,7 C 24,4 C 0,0 km/h
04.06.2010 20:00 21,6 C 50 % 1016,6 hPa 0,0 l/m 0,0 km/h SO 10,7 C 21,6 C 0,0 km/h
04.06.2010 21:00 15,5 C 71 % 1017,2 hPa 0,0 l/m 0,0 km/h SO 10,3 C 15,5 C 0,0 km/h
04.06.2010 22:00 13,9 C 77 % 1017,9 hPa 0,0 l/m 0,0 km/h O-NO 9,9 C 13,9 C 0,0 km/h
04.06.2010 23:00 13,5 C 78 % 1018,3 hPa 0,0 l/m 0,0 km/h O-NO 9,7 C 13,5 C 0,0 km/h
05.06.2010 00:00 13,4 C 79 % 1018,3 hPa 0,0 l/m 0,0 km/h O-NO 9,8 C 13,4 C 0,0 km/h
05.06.2010 01:00 11,9 C 82 % 1018,5 hPa 0,0 l/m 0,0 km/h O-NO 8,9 C 11,9 C 0,0 km/h
05.06.2010 02:00 10,9 C 86 % 1018,3 hPa 0,0 l/m 0,0 km/h NO 8,7 C 10,9 C 0,0 km/h
05.06.2010 03:00 10,6 C 87 % 1018,3 hPa 0,0 l/m 0,0 km/h O-NO 8,5 C 10,6 C 0,0 km/h
05.06.2010 04:00 9,9 C 89 % 1018,2 hPa 0,0 l/m 0,0 km/h N-NO 8,2 C 9,9 C 0,0 km/h
05.06.2010 05:00 9,6 C 90 % 1018,4 hPa 0,0 l/m 0,0 km/h O-NO 8,0 C 9,6 C 0,0 km/h
05.06.2010 06:00 10,5 C 91 % 1018,7 hPa 0,0 l/m 0,0 km/h NO 9,1 C 10,5 C 0,0 km/h
05.06.2010 07:00 16,5 C 83 % 1018,7 hPa 0,0 l/m 0,0 km/h SO 13,6 C 16,5 C 0,0 km/h
05.06.2010 08:00 28,8 C 49 % 1018,5 hPa 0,0 l/m 0,0 km/h W 17,0 C 28,8 C 0,0 km/h
05.06.2010 09:00 29,3 C 43 % 1018,3 hPa 0,0 l/m 0,0 km/h NW 15,4 C 29,3 C 0,0 km/h
05.06.2010 10:00 29,9 C 42 % 1018,0 hPa 0,0 l/m 0,0 km/h N-NW 15,6 C 29,9 C 0,0 km/h
05.06.2010 11:00 29,5 C 38 % 1017,5 hPa 0,0 l/m 0,0 km/h N-NW 13,7 C 29,5 C 0,0 km/h
05.06.2010 12:00 28,4 C 44 % 1017,1 hPa 0,0 l/m 0,0 km/h W-NW 14,9 C 28,4 C 0,0 km/h
05.06.2010 13:00 29,6 C 43 % 1016,5 hPa 0,0 l/m 2,6 km/h N 15,7 C 29,6 C 1,4 km/h
05.06.2010 14:00 30,8 C 37 % 1015,9 hPa 0,0 l/m 0,0 km/h W 14,4 C 30,8 C 0,0 km/h
05.06.2010 15:00 33,6 C 31 % 1015,4 hPa 0,0 l/m 0,0 km/h W 14,1 C 33,6 C 0,0 km/h
05.06.2010 16:00 36,5 C 26 % 1015,2 hPa 0,0 l/m 0,0 km/h W 13,9 C 36,5 C 0,0 km/h
05.06.2010 17:00 38,3 C 28 % 1014,9 hPa 0,0 l/m 0,0 km/h N-NW 16,5 C 38,3 C 0,0 km/h
05.06.2010 18:00 35,1 C 24 % 1014,7 hPa 0,0 l/m 0,0 km/h N 11,5 C 35,1 C 0,0 km/h
05.06.2010 19:00 27,1 C 37 % 1014,6 hPa 0,0 l/m 0,0 km/h S-SW 11,1 C 27,1 C 0,0 km/h
05.06.2010 20:00 21,6 C 55 % 1014,5 hPa 0,0 l/m 0,0 km/h SO 12,2 C 21,6 C 0,0 km/h
05.06.2010 21:00 18,8 C 63 % 1014,8 hPa 0,0 l/m 0,0 km/h SO 11,6 C 18,8 C 0,0 km/h
05.06.2010 22:00 16,7 C 69 % 1014,9 hPa 0,0 l/m 0,0 km/h SO 11,0 C 16,7 C 0,0 km/h
05.06.2010 23:00 16,4 C 70 % 1014,6 hPa 0,0 l/m 0,0 km/h O-NO 10,9 C 16,4 C 0,0 km/h
06.06.2010 00:00 14,9 C 75 % 1014,6 hPa 0,0 l/m 0,0 km/h NO 10,5 C 14,9 C 0,0 km/h
06.06.2010 01:00 14,3 C 76 % 1014,5 hPa 0,0 l/m 0,0 km/h O-NO 10,1 C 14,3 C 0,0 km/h
06.06.2010 02:00 13,3 C 79 % 1014,4 hPa 0,0 l/m 0,0 km/h NO 9,7 C 13,3 C 0,0 km/h
06.06.2010 03:00 13,3 C 81 % 1014,0 hPa 0,0 l/m 0,0 km/h SO 10,1 C 13,3 C 0,0 km/h
06.06.2010 04:00 13,2 C 81 % 1013,9 hPa 0,0 l/m 0,0 km/h O-NO 10,0 C 13,2 C 0,0 km/h
06.06.2010 05:00 12,3 C 85 % 1014,1 hPa 0,0 l/m 0,0 km/h SO 9,9 C 12,3 C 0,0 km/h
06.06.2010 06:00 12,9 C 85 % 1013,7 hPa 0,0 l/m 0,0 km/h SO 10,4 C 12,9 C 0,0 km/h
06.06.2010 07:00 19,2 C 78 % 1013,5 hPa 0,0 l/m 0,0 km/h S 15,3 C 19,2 C 0,0 km/h
06.06.2010 08:00 29,8 C 47 % 1013,1 hPa 0,0 l/m 0,0 km/h W-SW 17,2 C 29,8 C 0,0 km/h
06.06.2010 09:00 29,8 C 45 % 1012,8 hPa 0,0 l/m 0,0 km/h W-SW 16,6 C 29,8 C 0,0 km/h
06.06.2010 10:00 28,9 C 49 % 1012,4 hPa 0,0 l/m 0,0 km/h W-SW 17,1 C 28,9 C 0,0 km/h
06.06.2010 11:00 30,5 C 46 % 1012,4 hPa 0,0 l/m 0,0 km/h SO 17,5 C 30,5 C 0,0 km/h
06.06.2010 12:00 31,4 C 45 % 1011,8 hPa 0,0 l/m 0,0 km/h W 18,0 C 31,4 C 0,0 km/h
06.06.2010 13:00 30,4 C 47 % 1011,3 hPa 0,0 l/m 20,1 km/h SW 17,8 C 29,6 C 11,2 km/h
06.06.2010 14:00 29,7 C 52 % 1010,6 hPa 0,0 l/m 0,0 km/h W-SW 18,8 C 29,7 C 0,0 km/h
06.06.2010 15:00 29,1 C 54 % 1009,8 hPa 0,0 l/m 0,0 km/h SW 18,8 C 29,1 C 0,0 km/h
06.06.2010 16:00 26,5 C 56 % 1009,6 hPa 0,0 l/m 20,1 km/h W-SW 17,0 C 24,6 C 11,2 km/h
06.06.2010 17:00 26,1 C 55 % 1010,2 hPa 0,0 l/m 7,8 km/h N-NO 16,3 C 25,8 C 4,3 km/h
06.06.2010 18:00 21,8 C 63 % 1011,5 hPa 0,0 l/m 1,3 km/h NO 14,4 C 21,8 C 0,7 km/h
06.06.2010 19:00 20,4 C 72 % 1012,1 hPa 0,0 l/m 0,0 km/h O-NO 15,2 C 20,4 C 0,0 km/h
06.06.2010 20:00 19,6 C 78 % 1012,7 hPa 0,0 l/m 0,0 km/h S-SW 15,7 C 19,6 C 0,0 km/h
06.06.2010 21:00 18,3 C 84 % 1013,3 hPa 0,0 l/m 2,6 km/h SW 15,5 C 18,3 C 1,4 km/h
06.06.2010 22:00 16,9 C 86 % 1013,3 hPa 0,0 l/m 0,0 km/h SW 14,5 C 16,9 C 0,0 km/h
06.06.2010 23:00 16,9 C 87 % 1013,5 hPa 0,0 l/m 0,0 km/h SW 14,7 C 16,9 C 0,0 km/h
Min-Datum _ 04.06.10 05.06.10 06.06.10 - 31.05.10 - 31.05.10 04.06.10 31.05.10
_ Min-Zeit 04:53 18:53 16:53 - 07:53 - 13:53 04:53 07:53
Minimum _ 9,3 C 24 % 1009,6 hPa - 0,0 km/h - 6,9 C 9,3 C 0,0 km/h
Max-Datum _ 05.06.10 04.06.10 05.06.10 31.05.10 06.06.10 - 06.06.10 05.06.10 06.06.10
_ Max-Zeit 17:53 05:53 06:53 07:53 13:53 - 15:53 17:53 13:53
Maximum _ 38,3 C 92 % 1018,7 hPa 19,6 l/m 20,1 km/h
SW
- 18,8 C 38,3 C 11,2 km/h
SW
Durchschnitt _ 18,2 C 68 % 1015,1 hPa #39,5 l/m 0,5 km/h SO 11,5 C 18,2 C 0,3 km/h